Time;durP1;ratioP1;P1;durP2;ratioP2;P2;SDS_P1;SDS_P2;PMS_P1;PMS_P2;Temp;Humidity;BMP_temperature;BMP_pressure;BME280_temperature;BME280_humidity;BME280_pressure;Samples;Min_cycle;Max_cycle;Signal;HPM_P1;HPM_P2
2023/04/08 00:00:42;;;;;;;80.97;53.22;;;179.20;2252.80;;;;;;5049151;28;20025;-67
2023/04/08 00:03:08;;;;;;;102.10;69.65;;;154.50;2252.80;;;;;;5049526;28;20608;-66
2023/04/08 00:05:34;;;;;;;87.40;64.70;;;154.20;2252.80;;;;;;5049270;28;20029;-66
2023/04/08 00:07:59;;;;;;;91.82;64.45;;;154.30;2252.80;;;;;;5049472;28;20021;-66
2023/04/08 00:10:25;;;;;;;88.53;61.30;;;154.10;2252.80;;;;;;5049019;28;20025;-66
2023/04/08 00:12:51;;;;;;;94.50;63.65;;;154.10;2252.80;;;;;;5049278;28;20025;-68
2023/04/08 00:15:17;;;;;;;92.70;60.88;;;154.10;2252.80;;;;;;5049101;28;20056;-67
2023/04/08 00:17:44;;;;;;;108.10;74.05;;;154.40;2252.80;;;;;;5049581;28;20025;-66
2023/04/08 00:20:10;;;;;;;81.68;57.97;;;154.50;2252.80;;;;;;5049276;28;20052;-66
2023/04/08 00:22:36;;;;;;;76.60;54.20;;;154.50;2252.80;;;;;;5049265;28;20040;-65
2023/04/08 00:25:05;;;;;;;80.63;52.70;;;179.40;2252.80;;;;;;5048824;28;20029;-67
2023/04/08 00:27:31;;;;;;;73.97;52.53;;;179.40;2252.80;;;;;;5035303;28;20091;-69
2023/04/08 00:29:58;;;;;;;68.95;47.85;;;179.40;2252.80;;;;;;5049041;28;20414;-66
2023/04/08 00:32:24;;;;;;;68.93;51.78;;;179.40;2252.80;;;;;;5048801;28;20013;-66
2023/04/08 00:34:51;;;;;;;86.10;57.90;;;179.50;2252.80;;;;;;5049181;28;20498;-65
2023/04/08 00:37:17;;;;;;;86.07;60.47;;;179.70;2252.80;;;;;;5048576;28;20031;-65
2023/04/08 00:39:42;;;;;;;108.82;76.68;;;179.80;2252.80;;;;;;5049127;28;20037;-70
2023/04/08 00:42:08;;;;;;;87.30;57.60;;;179.70;2252.80;;;;;;5048648;28;20029;-72
2023/04/08 00:44:34;;;;;;;78.90;55.47;;;179.80;2252.80;;;;;;5048604;28;20040;-81
2023/04/08 00:47:00;;;;;;;83.25;56.33;;;179.70;2252.80;;;;;;5049006;28;20060;-70
2023/04/08 00:49:26;;;;;;;70.03;52.97;;;179.60;2252.80;;;;;;5048795;28;20033;-68
2023/04/08 00:51:54;;;;;;;75.78;52.58;;;179.60;2252.80;;;;;;5049142;28;20029;-72
2023/04/08 00:54:20;;;;;;;91.28;62.75;;;179.60;2252.80;;;;;;5043196;28;20022;-72
2023/04/08 00:56:46;;;;;;;84.47;60.15;;;179.60;2252.80;;;;;;5049201;28;20032;-71
2023/04/08 00:59:12;;;;;;;82.25;51.60;;;179.60;2252.80;;;;;;5052896;28;20059;-71
2023/04/08 01:01:40;;;;;;;88.32;60.17;;;179.70;2252.80;;;;;;5052868;28;20106;-71
2023/04/08 01:04:12;;;;;;;75.65;53.00;;;179.70;2252.80;;;;;;5052334;28;20033;-71
2023/04/08 01:07:04;;;;;;;71.75;50.90;;;179.80;2252.80;;;;;;5052928;28;20103;-71
2023/04/08 01:09:34;;;;;;;150.07;98.03;;;179.80;2252.80;;;;;;5050442;28;20037;-71
2023/04/08 01:12:05;;;;;;;73.03;49.05;;;179.80;2252.80;;;;;;5050760;28;20032;-70
2023/04/08 01:14:34;;;;;;;70.70;49.10;;;179.80;2252.80;;;;;;5050330;28;20040;-71
2023/04/08 01:17:01;;;;;;;69.78;47.50;;;179.90;2252.80;;;;;;5050380;28;20032;-82
2023/04/08 01:19:33;;;;;;;67.32;48.40;;;180.00;2252.80;;;;;;5050438;28;20032;-71
2023/04/08 01:22:16;;;;;;;63.35;45.50;;;179.60;2252.80;;;;;;5050568;28;20495;-75
2023/04/08 01:24:43;;;;;;;;;;;179.60;2252.80;;;;;;5050195;28;20072;-71
2023/04/08 01:27:10;;;;;;;65.20;46.45;;;179.70;2252.80;;;;;;5050074;28;19951;-70
2023/04/08 01:29:37;;;;;;;83.95;54.22;;;179.60;2252.80;;;;;;5049864;28;20029;-70
2023/04/08 01:32:04;;;;;;;71.13;50.15;;;179.40;2252.80;;;;;;5049545;28;20055;-75
2023/04/08 01:34:31;;;;;;;71.43;49.72;;;179.50;2252.80;;;;;;5050045;28;20043;-80
2023/04/08 01:36:57;;;;;;;78.80;53.78;;;179.70;2252.80;;;;;;5044148;28;20029;-69
2023/04/08 01:39:24;;;;;;;64.88;47.28;;;179.80;2252.80;;;;;;5041163;28;20491;-70
2023/04/08 01:41:53;;;;;;;62.25;45.65;;;179.50;2252.80;;;;;;5049842;28;20536;-70
2023/04/08 01:44:20;;;;;;;64.47;46.90;;;179.20;2252.80;;;;;;5049681;28;20127;-69
2023/04/08 01:46:48;;;;;;;70.10;46.38;;;179.30;2252.80;;;;;;5050962;28;20082;-70
2023/04/08 01:49:15;;;;;;;66.32;46.65;;;179.40;2252.80;;;;;;5051902;28;20450;-70
2023/04/08 01:51:45;;;;;;;62.92;44.55;;;179.50;2252.80;;;;;;5051711;28;20032;-70
2023/04/08 01:54:11;;;;;;;60.95;44.78;;;179.50;2252.80;;;;;;5051795;28;20013;-79
2023/04/08 01:56:39;;;;;;;58.20;41.63;;;179.30;2252.80;;;;;;5038327;28;20029;-70
2023/04/08 01:59:10;;;;;;;60.78;41.00;;;179.20;2252.80;;;;;;5051530;28;20474;-70
2023/04/08 02:01:37;;;;;;;58.97;42.30;;;154.40;2252.80;;;;;;5026713;28;20489;-70
2023/04/08 02:04:03;;;;;;;55.17;40.15;;;154.20;2252.80;;;;;;5050619;28;20120;-71
2023/04/08 02:06:30;;;;;;;66.10;42.35;;;154.20;2252.80;;;;;;5051737;28;20144;-73
2023/04/08 02:08:58;;;;;;;68.95;47.50;;;154.20;2252.80;;;;;;5051298;28;20025;-70
2023/04/08 02:11:24;;;;;;;66.47;46.83;;;179.20;2252.80;;;;;;5051290;28;20024;-69
2023/04/08 02:13:51;;;;;;;66.55;45.70;;;179.40;2252.80;;;;;;5051477;28;20074;-77
2023/04/08 02:16:28;;;;;;;68.65;47.05;;;179.40;2252.80;;;;;;5051016;28;20025;-69
2023/04/08 02:19:05;;;;;;;66.95;47.00;;;179.30;2252.80;;;;;;5039776;28;20492;-70
2023/04/08 02:21:47;;;;;;;65.13;48.80;;;179.40;2252.80;;;;;;5051155;28;20067;-69
2023/04/08 02:24:16;;;;;;;71.30;49.75;;;179.40;2252.80;;;;;;5051514;28;20037;-71
2023/04/08 02:26:43;;;;;;;73.40;53.25;;;179.30;2252.80;;;;;;5051010;28;20057;-70
2023/04/08 02:29:14;;;;;;;75.60;53.08;;;179.40;2252.80;;;;;;5051260;28;20520;-70
2023/04/08 02:31:41;;;;;;;74.70;51.05;;;179.60;2252.80;;;;;;5051027;28;20474;-78
2023/04/08 02:34:10;;;;;;;74.80;49.72;;;179.40;2252.80;;;;;;5050895;28;20078;-75
2023/04/08 02:36:37;;;;;;;66.32;48.10;;;179.50;2252.80;;;;;;5050801;28;20498;-70
2023/04/08 02:39:03;;;;;;;74.10;48.50;;;179.20;2252.80;;;;;;5050614;28;20179;-70
2023/04/08 02:41:30;;;;;;;68.60;48.17;;;154.40;2252.80;;;;;;5051460;28;20116;-76
2023/04/08 02:43:56;;;;;;;65.45;45.92;;;154.20;2252.80;;;;;;5050352;28;20073;-70
2023/04/08 02:46:22;;;;;;;66.57;47.75;;;154.20;2252.80;;;;;;5051090;28;20029;-71
2023/04/08 02:48:47;;;;;;;71.70;47.50;;;154.40;2252.80;;;;;;5037685;28;20137;-77
2023/04/08 02:51:13;;;;;;;68.32;52.42;;;179.20;2252.80;;;;;;5050542;28;20021;-71
2023/04/08 02:53:39;;;;;;;65.72;43.35;;;179.40;2252.80;;;;;;5051068;28;20079;-70
2023/04/08 02:56:05;;;;;;;62.08;43.40;;;179.50;2252.80;;;;;;5050649;28;20078;-70
2023/04/08 02:58:31;;;;;;;65.05;44.88;;;179.60;2252.80;;;;;;5050867;28;20469;-68
2023/04/08 03:00:56;;;;;;;74.95;46.38;;;179.60;2252.80;;;;;;5050221;28;20025;-74
2023/04/08 03:03:27;;;;;;;61.60;42.95;;;179.70;2252.80;;;;;;5050087;28;20035;-70
2023/04/08 03:05:53;;;;;;;53.53;39.03;;;179.70;2252.80;;;;;;5050729;28;20053;-70
2023/04/08 03:08:19;;;;;;;58.95;45.75;;;179.70;2252.80;;;;;;5050756;28;20475;-77
2023/04/08 03:10:45;;;;;;;64.70;45.72;;;179.80;2252.80;;;;;;5050412;28;20040;-69
2023/04/08 03:13:10;;;;;;;59.15;42.17;;;179.80;2252.80;;;;;;5050171;28;20483;-69
2023/04/08 03:15:36;;;;;;;61.63;44.40;;;179.80;2252.80;;;;;;5049141;28;20035;-68
2023/04/08 03:18:02;;;;;;;90.32;60.63;;;179.90;2252.80;;;;;;5050459;28;20029;-69
2023/04/08 03:20:28;;;;;;;87.70;57.05;;;179.90;2252.80;;;;;;5050489;28;20040;-73
2023/04/08 03:22:54;;;;;;;73.60;48.30;;;179.90;2252.80;;;;;;5049654;28;20025;-70
2023/04/08 03:25:19;;;;;;;70.88;47.88;;;179.70;2252.80;;;;;;5050521;28;20040;-69
2023/04/08 03:27:45;;;;;;;67.05;46.72;;;179.70;2252.80;;;;;;5049852;28;20018;-70
2023/04/08 03:30:11;;;;;;;80.47;53.90;;;179.70;2252.80;;;;;;5050269;28;20475;-73
2023/04/08 03:32:36;;;;;;;85.38;55.50;;;179.70;2252.80;;;;;;5049782;28;20136;-72
2023/04/08 03:35:03;;;;;;;100.80;68.35;;;179.80;2252.80;;;;;;5049781;28;20148;-71
2023/04/08 03:37:29;;;;;;;71.35;48.80;;;179.90;2252.80;;;;;;5050109;28;20054;-74
2023/04/08 03:39:55;;;;;;;69.57;48.30;;;179.80;2252.80;;;;;;5049929;28;20103;-70
2023/04/08 03:42:21;;;;;;;83.95;57.80;;;179.80;2252.80;;;;;;5049613;28;20029;-70
2023/04/08 03:44:47;;;;;;;62.08;42.38;;;179.90;2252.80;;;;;;5049644;28;20028;-68
2023/04/08 03:47:12;;;;;;;59.00;43.78;;;179.90;2252.80;;;;;;5050138;28;20049;-69
2023/04/08 03:49:38;;;;;;;57.92;41.28;;;179.90;2252.80;;;;;;5050485;28;20028;-68
2023/04/08 03:52:04;;;;;;;56.80;42.17;;;179.90;2252.80;;;;;;5049575;28;20462;-69
2023/04/08 03:54:29;;;;;;;62.72;41.05;;;179.80;2252.80;;;;;;5050178;28;20114;-67
2023/04/08 03:56:55;;;;;;;62.20;39.97;;;179.90;2252.80;;;;;;5049978;28;20466;-67
2023/04/08 03:59:21;;;;;;;56.97;40.90;;;179.80;2252.80;;;;;;5050742;28;20452;-68
2023/04/08 04:01:47;;;;;;;60.78;47.30;;;179.80;2252.80;;;;;;5036185;28;20017;-72
2023/04/08 04:04:13;;;;;;;65.95;48.92;;;179.50;2252.80;;;;;;5050366;28;20509;-68
2023/04/08 04:06:39;;;;;;;70.32;50.20;;;179.50;2252.80;;;;;;5049757;28;20021;-68
2023/04/08 04:09:04;;;;;;;64.75;46.75;;;179.60;2252.80;;;;;;5049075;28;20079;-72
2023/04/08 04:11:30;;;;;;;61.38;47.28;;;179.60;2252.80;;;;;;5036232;28;20028;-70
2023/04/08 04:13:56;;;;;;;74.35;50.05;;;179.50;2252.80;;;;;;5040765;28;20021;-68
2023/04/08 04:16:21;;;;;;;64.25;47.22;;;179.60;2252.80;;;;;;5048174;28;20036;-70
2023/04/08 04:18:47;;;;;;;69.32;51.45;;;179.70;2252.80;;;;;;5047440;28;20025;-67
2023/04/08 04:21:13;;;;;;;74.20;53.40;;;179.60;2252.80;;;;;;5049146;28;20037;-70
2023/04/08 04:23:39;;;;;;;81.05;56.80;;;179.30;2252.80;;;;;;5049063;28;20494;-66
2023/04/08 04:26:08;;;;;;;72.38;51.17;;;154.50;2252.80;;;;;;5049273;28;20021;-71
2023/04/08 04:28:35;;;;;;;69.97;49.75;;;154.50;2252.80;;;;;;5048610;28;20124;-67
2023/04/08 04:31:00;;;;;;;69.80;49.53;;;154.50;2252.80;;;;;;5049162;28;20025;-69
2023/04/08 04:33:26;;;;;;;66.45;48.05;;;154.50;2252.80;;;;;;5048457;28;20453;-68
2023/04/08 04:35:52;;;;;;;65.38;48.78;;;154.30;2252.80;;;;;;5049336;28;20039;-68
2023/04/08 04:38:17;;;;;;;59.60;42.90;;;154.50;2252.80;;;;;;5048900;28;20049;-73
2023/04/08 04:40:43;;;;;;;67.60;43.88;;;179.40;2252.80;;;;;;5048700;28;20108;-68
2023/04/08 04:43:09;;;;;;;53.60;39.10;;;179.40;2252.80;;;;;;5049244;28;20017;-65
2023/04/08 04:45:35;;;;;;;63.10;42.47;;;179.40;2252.80;;;;;;5048494;28;20044;-67
2023/04/08 04:48:02;;;;;;;49.83;38.03;;;179.20;2252.80;;;;;;5049358;28;20056;-67
2023/04/08 04:50:28;;;;;;;46.47;34.95;;;179.30;2252.80;;;;;;5048419;28;20021;-66
2023/04/08 04:52:54;;;;;;;46.25;34.72;;;179.20;2252.80;;;;;;5048836;28;20477;-69
2023/04/08 04:55:21;;;;;;;51.63;37.28;;;179.30;2252.80;;;;;;5048928;28;20035;-71
2023/04/08 04:57:47;;;;;;;50.83;35.22;;;179.40;2252.80;;;;;;5049102;28;20025;-70
2023/04/08 05:00:13;;;;;;;49.97;37.50;;;179.50;2252.80;;;;;;5048162;28;20025;-67
2023/04/08 05:02:39;;;;;;;50.15;35.92;;;179.40;2252.80;;;;;;5049011;28;20370;-66
2023/04/08 05:05:05;;;;;;;44.55;32.22;;;179.40;2252.80;;;;;;5048279;28;20041;-67
2023/04/08 05:07:35;;;;;;;49.25;35.78;;;179.60;2252.80;;;;;;5049335;28;20060;-73
2023/04/08 05:10:01;;;;;;;43.38;32.10;;;179.70;2252.80;;;;;;5049129;28;20068;-67
2023/04/08 05:12:26;;;;;;;49.17;31.42;;;179.70;2252.80;;;;;;5037618;28;20030;-67
2023/04/08 05:14:52;;;;;;;40.03;27.52;;;179.80;2252.80;;;;;;5029599;28;20513;-69
2023/04/08 05:17:18;;;;;;;42.10;29.20;;;179.90;2252.80;;;;;;5028048;28;20490;-69
2023/04/08 05:19:43;;;;;;;35.38;27.95;;;179.80;2252.80;;;;;;5028529;28;20057;-69
2023/04/08 05:22:09;;;;;;;33.63;24.27;;;180.00;2252.80;;;;;;5027907;28;20088;-74
2023/04/08 05:24:35;;;;;;;75.45;53.00;;;;;;;;;;5028055;28;20043;-70
2023/04/08 05:27:01;;;;;;;109.05;72.20;;;180.10;2252.80;;;;;;5041952;28;20025;-68
2023/04/08 05:29:27;;;;;;;88.00;63.13;;;180.10;2252.80;;;;;;5036783;28;20117;-65
2023/04/08 05:31:52;;;;;;;93.25;65.82;;;180.10;2252.80;;;;;;5048236;28;20112;-70
2023/04/08 05:34:21;;;;;;;157.93;112.65;;;180.00;2252.80;;;;;;5048619;28;20029;-70
2023/04/08 05:36:50;;;;;;;154.15;122.13;;;180.00;2252.80;;;;;;5048126;28;20112;-69
2023/04/08 05:39:17;;;;;;;170.23;117.47;;;180.00;2252.80;;;;;;5048967;28;20133;-70
2023/04/08 05:41:43;;;;;;;137.73;83.65;;;180.00;2252.80;;;;;;5051925;28;20021;-71
2023/04/08 05:44:09;;;;;;;477.98;299.10;;;180.00;2252.80;;;;;;5052150;28;20041;-71
2023/04/08 05:46:36;;;;;;;312.02;190.50;;;180.00;2252.80;;;;;;5051977;28;20024;-71
2023/04/08 05:49:02;;;;;;;318.63;217.40;;;180.10;2252.80;;;;;;5052042;28;20032;-69
2023/04/08 05:51:28;;;;;;;412.75;284.58;;;;;;;;;;5052077;28;20013;-73
2023/04/08 05:53:54;;;;;;;298.42;197.30;;;;;;;;;;5038048;28;20053;-68
2023/04/08 05:56:20;;;;;;;198.80;146.95;;;205.20;2252.80;;;;;;5052209;28;20055;-68
2023/04/08 05:58:46;;;;;;;227.13;167.32;;;205.10;2252.80;;;;;;5051450;28;20471;-72
2023/04/08 06:01:12;;;;;;;230.73;165.43;;;205.10;2252.80;;;;;;5038217;28;20033;-73
2023/04/08 06:03:38;;;;;;;162.65;116.57;;;205.20;2252.80;;;;;;5046949;28;20471;-70
2023/04/08 06:06:10;;;;;;;287.55;211.93;;;205.20;2252.80;;;;;;5030561;28;20126;-71
2023/04/08 06:08:35;;;;;;;275.85;209.80;;;205.20;2252.80;;;;;;5033875;28;20491;-71
2023/04/08 06:11:03;;;;;;;94.60;73.43;;;205.20;2252.80;;;;;;5043782;28;20040;-73
2023/04/08 06:13:28;;;;;;;148.02;119.97;;;205.20;2252.80;;;;;;5051864;28;20025;-74
2023/04/08 06:15:54;;;;;;;96.15;72.45;;;205.30;2252.80;;;;;;5051287;28;20021;-75
2023/04/08 06:18:20;;;;;;;56.88;40.25;;;205.40;2252.80;;;;;;5051317;28;20021;-69
2023/04/08 06:20:46;;;;;;;52.38;44.17;;;205.60;2252.80;;;;;;5051477;28;20035;-74
2023/04/08 06:23:11;;;;;;;36.33;28.90;;;205.70;2252.80;;;;;;5050565;28;20025;-71
2023/04/08 06:25:37;;;;;;;39.35;30.38;;;230.60;2252.80;;;;;;5031354;28;20084;-67
2023/04/08 06:28:03;;;;;;;42.22;31.58;;;230.80;2252.80;;;;;;5031327;28;20083;-70
2023/04/08 06:30:29;;;;;;;41.20;32.60;;;230.90;2252.80;;;;;;5031488;28;20029;-69
2023/04/08 06:32:54;;;;;;;34.78;28.65;;;231.10;2252.80;;;;;;5045280;28;20025;-69
2023/04/08 06:35:20;;;;;;;36.50;26.50;;;231.20;2252.80;;;;;;5037298;28;20052;-69
2023/04/08 06:37:46;;;;;;;42.42;29.63;;;231.30;2252.80;;;;;;5030729;28;20084;-73
2023/04/08 06:40:11;;;;;;;35.22;28.05;;;256.00;2252.80;;;;;;5031181;28;20454;-73
2023/04/08 06:42:39;;;;;;;34.17;27.15;;;256.20;2252.80;;;;;;5031607;28;20021;-70
2023/04/08 06:45:06;;;;;;;42.65;31.02;;;256.50;2252.80;;;;;;5037844;28;20124;-71
2023/04/08 06:47:32;;;;;;;48.95;35.60;;;256.60;2252.80;;;;;;5051313;28;20033;-72
2023/04/08 06:49:58;;;;;;;44.20;33.20;;;256.60;2252.80;;;;;;5050473;28;20031;-71
2023/04/08 06:52:24;;;;;;;77.32;54.92;;;256.50;2252.80;;;;;;5036808;28;20072;-73
2023/04/08 06:54:49;;;;;;;71.90;64.22;;;256.80;2252.80;;;;;;5044124;28;20048;-72
2023/04/08 06:57:15;;;;;;;56.00;40.53;;;256.70;2252.80;;;;;;5030885;28;20025;-73
2023/04/08 06:59:41;;;;;;;47.75;34.53;;;256.50;2252.80;;;;;;5031078;28;20079;-72
2023/04/08 07:02:06;;;;;;;40.30;29.02;;;256.70;2252.80;;;;;;5030293;28;20067;-81
2023/04/08 07:04:32;;;;;;;53.90;42.42;;;256.90;2252.80;;;;;;5030529;28;20117;-71
2023/04/08 07:06:58;;;;;;;64.38;49.05;;;281.60;2278.40;;;;;;5043462;28;20352;-71
2023/04/08 07:09:24;;;;;;;38.88;33.28;;;281.60;2278.40;;;;;;5043811;28;20036;-71
2023/04/08 07:11:50;;;;;;;38.97;32.08;;;281.70;2278.40;;;;;;5030887;28;20029;-72
2023/04/08 07:14:15;;;;;;;46.58;34.30;;;281.70;2278.40;;;;;;5037075;28;20426;-70
2023/04/08 07:16:41;;;;;;;71.63;52.45;;;281.80;2278.40;;;;;;5039672;28;20021;-71
2023/04/08 07:19:07;;;;;;;73.47;55.92;;;281.80;2278.40;;;;;;5049685;28;20386;-71
2023/04/08 07:21:32;;;;;;;68.57;50.20;;;281.90;2278.40;;;;;;5033266;28;20020;-72
2023/04/08 07:23:59;;;;;;;97.95;76.10;;;282.00;2278.40;;;;;;5050184;28;20037;-75
2023/04/08 07:26:27;;;;;;;72.40;52.97;;;282.10;2278.40;;;;;;5046400;28;20079;-72
2023/04/08 07:28:52;;;;;;;50.65;38.83;;;281.90;2278.40;;;;;;5040683;28;20044;-69
2023/04/08 07:31:18;;;;;;;63.25;45.00;;;281.70;2278.40;;;;;;5050127;28;20013;-68
2023/04/08 07:33:45;;;;;;;110.57;98.32;;;256.90;2252.80;;;;;;5049610;28;20429;-73
2023/04/08 07:36:11;;;;;;;67.88;57.70;;;282.00;2278.40;;;;;;5049695;28;20058;-65
2023/04/08 07:38:38;;;;;;;59.42;45.20;;;282.50;2278.40;;;;;;5049399;28;20064;-64
2023/04/08 07:41:04;;;;;;;61.60;45.42;;;307.30;2304.00;;;;;;5049791;28;20040;-64
2023/04/08 07:43:33;;;;;;;72.72;55.72;;;307.60;2304.00;;;;;;5050344;28;20025;-63
2023/04/08 07:46:03;;;;;;;76.63;58.63;;;307.70;2304.00;;;;;;5050002;28;20021;-71
2023/04/08 07:48:30;;;;;;;83.90;61.45;;;308.10;2304.00;;;;;;5050051;28;20071;-64
2023/04/08 07:50:55;;;;;;;63.80;51.50;;;333.10;2329.60;;;;;;5049203;28;20093;-64
2023/04/08 07:53:23;;;;;;;91.25;72.13;;;333.10;2329.60;;;;;;5049734;28;20455;-64
2023/04/08 07:55:49;;;;;;;93.13;74.90;;;333.00;2329.60;;;;;;5049429;28;20025;-62
2023/04/08 07:58:14;;;;;;;62.58;53.97;;;333.10;2329.60;;;;;;5049687;28;20028;-67
2023/04/08 08:00:40;;;;;;;75.00;54.47;;;332.80;2329.60;;;;;;5049708;28;20027;-67
2023/04/08 08:03:06;;;;;;;69.50;53.55;;;307.70;2304.00;;;;;;5048763;28;20105;-62
2023/04/08 08:05:31;;;;;;;70.68;57.95;;;307.90;2304.00;;;;;;5035724;28;20426;-67
2023/04/08 08:07:58;;;;;;;72.72;59.40;;;307.30;2304.00;;;;;;5049347;28;20387;-67
2023/04/08 08:10:23;;;;;;;72.18;57.80;;;307.20;2304.00;;;;;;5048844;28;20493;-63
2023/04/08 08:12:49;;;;;;;67.35;53.70;;;307.60;2304.00;;;;;;5037627;28;20021;-67
2023/04/08 08:15:15;;;;;;;69.68;54.70;;;307.90;2304.00;;;;;;5047237;28;20031;-64
2023/04/08 08:17:41;;;;;;;75.45;59.53;;;308.00;2304.00;;;;;;5049273;28;20057;-67
2023/04/08 08:20:07;;;;;;;73.57;56.55;;;307.90;2304.00;;;;;;5035792;28;20059;-64
2023/04/08 08:22:33;;;;;;;67.78;53.13;;;333.50;2329.60;;;;;;5049389;28;20370;-63
2023/04/08 08:24:59;;;;;;;80.38;64.25;;;358.40;2329.60;;;;;;5049406;28;20029;-64
2023/04/08 08:27:25;;;;;;;64.70;52.25;;;358.60;2329.60;;;;;;5048899;28;20021;-63
2023/04/08 08:29:51;;;;;;;62.63;49.05;;;333.60;2329.60;;;;;;5048788;28;20120;-63
2023/04/08 08:32:17;;;;;;;60.60;47.53;;;333.50;2329.60;;;;;;5049075;28;20054;-63
2023/04/08 08:34:43;;;;;;;82.88;66.10;;;358.90;2278.40;;;;;;5048676;28;20074;-67
2023/04/08 08:37:09;;;;;;;55.35;46.13;;;358.90;2329.60;;;;;;5048658;28;20074;-62
2023/04/08 08:39:35;;;;;;;52.38;42.22;;;359.00;2304.00;;;;;;5043868;28;20037;-64
2023/04/08 08:42:01;;;;;;;66.85;57.65;;;384.00;2329.60;;;;;;5040828;28;20032;-63
2023/04/08 08:44:29;;;;;;;41.00;36.45;;;384.40;2176.00;;;;;;5040866;28;20414;-63
2023/04/08 08:46:55;;;;;;;40.95;33.50;;;384.90;2124.80;;;;;;5028293;28;20057;-63
2023/04/08 08:49:20;;;;;;;49.13;42.40;;;409.60;2099.20;;;;;;5028769;28;20443;-62
2023/04/08 08:51:47;;;;;;;60.55;54.30;;;435.80;1971.20;;;;;;5028154;28;20048;-64
2023/04/08 08:54:14;;;;;;;43.47;38.05;;;410.30;2048.00;;;;;;5028806;28;20025;-65
2023/04/08 08:56:42;;;;;;;60.63;54.50;;;410.00;2022.40;;;;;;5048680;28;20143;-64
2023/04/08 08:59:08;;;;;;;47.97;41.35;;;410.50;2022.40;;;;;;5033287;28;20057;-63
2023/04/08 09:01:40;;;;;;;45.85;40.90;;;410.30;1971.20;;;;;;5028372;28;20017;-64
2023/04/08 09:04:05;;;;;;;41.15;36.17;;;409.60;2073.60;;;;;;5028086;28;20021;-65
2023/04/08 09:06:31;;;;;;;51.20;43.55;;;384.40;2073.60;;;;;;5028764;28;20044;-64
2023/04/08 09:08:57;;;;;;;52.67;45.75;;;409.90;2073.60;;;;;;5045666;28;20070;-63
2023/04/08 09:11:23;;;;;;;52.42;46.45;;;410.50;2073.60;;;;;;5038636;28;20486;-64
2023/04/08 09:13:49;;;;;;;37.40;33.45;;;410.10;1996.80;;;;;;5046368;28;20017;-63
2023/04/08 09:16:22;;;;;;;40.45;32.42;;;359.10;2124.80;;;;;;5049898;28;20036;-64
2023/04/08 09:18:48;;;;;;;45.20;36.22;;;384.40;2048.00;;;;;;5025596;28;20070;-64
2023/04/08 09:21:15;;;;;;;53.10;43.08;;;409.80;2048.00;;;;;;5050542;28;20033;-64
2023/04/08 09:23:46;;;;;;;41.50;36.78;;;384.80;2048.00;;;;;;5051429;28;20682;-64
2023/04/08 09:26:15;;;;;;;34.78;31.13;;;409.70;2048.00;;;;;;5050817;28;20035;-67
2023/04/08 09:28:42;;;;;;;43.38;36.38;;;409.70;2048.00;;;;;;5050700;28;20025;-63
2023/04/08 09:31:20;;;;;;;39.38;34.47;;;384.90;2022.40;;;;;;5050338;28;20035;-65
2023/04/08 09:33:47;;;;;;;44.47;38.63;;;409.70;1996.80;;;;;;5050272;28;20029;-65
2023/04/08 09:36:14;;;;;;;37.97;33.58;;;384.70;2022.40;;;;;;5042442;28;20120;-64
2023/04/08 09:38:40;;;;;;;42.83;34.00;;;333.60;2150.40;;;;;;5021779;28;20103;-66
2023/04/08 09:41:10;;;;;;;43.70;35.95;;;358.70;2124.80;;;;;;5034093;28;20430;-62
2023/04/08 09:43:42;;;;;;;41.20;36.72;;;358.80;2124.80;;;;;;5027218;28;20116;-60
2023/04/08 09:46:11;;;;;;;50.40;38.58;;;333.30;2252.80;;;;;;5048830;28;20486;-61
2023/04/08 09:48:42;;;;;;;47.55;38.78;;;333.50;2278.40;;;;;;5033108;28;20107;-61
2023/04/08 09:51:11;;;;;;;48.40;38.35;;;333.10;2329.60;;;;;;5028949;28;20018;-63
2023/04/08 09:53:40;;;;;;;44.97;37.53;;;333.20;2329.60;;;;;;5027311;28;20021;-66
2023/04/08 09:56:11;;;;;;;42.25;32.85;;;333.30;2329.60;;;;;;5031846;28;20586;-68
2023/04/08 09:58:53;;;;;;;35.70;31.42;;;333.20;2329.60;;;;;;5028838;28;20021;-67
2023/04/08 10:01:27;;;;;;;33.90;27.85;;;332.90;2329.60;;;;;;5018725;28;20060;-66
2023/04/08 10:03:56;;;;;;;35.83;30.65;;;333.20;2329.60;;;;;;5042447;28;20032;-67
2023/04/08 10:06:27;;;;;;;37.78;30.75;;;333.40;2329.60;;;;;;5029047;28;20034;-65
2023/04/08 10:08:55;;;;;;;38.95;32.13;;;358.50;2329.60;;;;;;5026672;28;20144;-65
2023/04/08 10:11:20;;;;;;;34.75;29.63;;;358.90;2252.80;;;;;;5021422;28;20064;-69
2023/04/08 10:13:47;;;;;;;30.70;24.10;;;359.10;2176.00;;;;;;5032280;28;20428;-69
2023/04/08 10:16:24;;;;;;;32.17;28.45;;;358.90;2176.00;;;;;;5017772;28;20028;-66
2023/04/08 10:18:54;;;;;;;36.65;29.77;;;359.00;2201.60;;;;;;5013105;28;20703;-66
2023/04/08 10:21:46;;;;;;;36.35;29.95;;;358.80;2201.60;;;;;;5032209;28;20037;-66
2023/04/08 10:24:12;;;;;;;38.25;32.90;;;359.20;2201.60;;;;;;5020656;28;20071;-66
2023/04/08 10:26:43;;;;;;;107.00;68.57;;;358.60;2252.80;;;;;;5033934;28;20034;-66
2023/04/08 10:29:18;;;;;;;154.27;92.85;;;333.70;2278.40;;;;;;5028322;28;20026;-69
2023/04/08 10:31:45;;;;;;;49.55;37.40;;;333.20;2329.60;;;;;;5030483;28;20037;-68
2023/04/08 10:34:18;;;;;;;46.03;35.97;;;308.10;2304.00;;;;;;5031480;28;20514;-70
2023/04/08 10:36:45;;;;;;;50.13;36.28;;;333.20;2329.60;;;;;;5026737;28;20029;-67
2023/04/08 10:39:12;;;;;;;95.95;70.65;;;333.70;2329.60;;;;;;5022027;28;20541;-68
2023/04/08 10:41:45;;;;;;;72.72;56.72;;;333.50;2329.60;;;;;;5031170;28;20395;-68
2023/04/08 10:44:15;;;;;;;56.28;42.70;;;358.40;2304.00;;;;;;5031989;28;20466;-68
2023/04/08 10:46:42;;;;;;;76.93;56.95;;;333.70;2329.60;;;;;;5018264;28;20026;-70
2023/04/08 10:49:08;;;;;;;42.65;32.47;;;333.40;2329.60;;;;;;5023595;28;20061;-69
2023/04/08 10:51:36;;;;;;;50.78;38.95;;;333.50;2304.00;;;;;;5035072;28;20982;-65
2023/04/08 10:54:15;;;;;;;56.55;43.50;;;333.60;2304.00;;;;;;5015856;28;20107;-68
2023/04/08 10:56:45;;;;;;;54.53;42.05;;;333.60;2329.60;;;;;;5041568;28;20025;-68
2023/04/08 10:59:15;;;;;;;46.83;38.47;;;333.20;2329.60;;;;;;5025697;28;20022;-63
2023/04/08 11:01:43;;;;;;;74.68;58.92;;;333.40;2329.60;;;;;;5026287;28;20061;-67
2023/04/08 11:04:18;;;;;;;47.42;35.33;;;333.40;2329.60;;;;;;5021933;28;20053;-70
2023/04/08 11:06:45;;;;;;;50.85;42.47;;;332.90;2329.60;;;;;;5028159;28;20033;-65
2023/04/08 11:09:12;;;;;;;55.45;37.63;;;332.80;2329.60;;;;;;5028399;28;20086;-67
2023/04/08 11:11:38;;;;;;;62.95;39.60;;;332.90;2329.60;;;;;;5026815;28;20029;-66
2023/04/08 11:14:04;;;;;;;39.13;31.73;;;332.80;2329.60;;;;;;5035890;28;20113;-65
2023/04/08 11:16:31;;;;;;;41.42;34.33;;;308.00;2304.00;;;;;;5031664;28;20032;-65
2023/04/08 11:18:57;;;;;;;35.13;28.02;;;308.10;2304.00;;;;;;5024430;28;20048;-68
2023/04/08 11:21:24;;;;;;;33.80;27.63;;;332.80;2329.60;;;;;;5029842;28;20073;-64
2023/04/08 11:23:51;;;;;;;39.47;30.10;;;308.10;2304.00;;;;;;5030829;28;20017;-67
2023/04/08 11:26:20;;;;;;;46.33;34.08;;;332.80;2329.60;;;;;;5025654;28;20053;-67
2023/04/08 11:28:49;;;;;;;48.40;36.80;;;308.00;2304.00;;;;;;5023344;28;20021;-66
2023/04/08 11:31:15;;;;;;;88.22;57.78;;;307.80;2304.00;;;;;;5025905;28;20039;-66
2023/04/08 11:33:47;;;;;;;55.15;39.28;;;307.80;2304.00;;;;;;5028134;28;20613;-69
2023/04/08 11:36:14;;;;;;;64.90;45.33;;;308.10;2304.00;;;;;;5025371;28;20040;-66
2023/04/08 11:38:40;;;;;;;59.97;42.53;;;333.50;2329.60;;;;;;5022177;28;20156;-67
2023/04/08 11:41:06;;;;;;;32.53;26.02;;;358.50;2329.60;;;;;;5017926;28;20025;-69
2023/04/08 11:43:32;;;;;;;35.20;26.88;;;358.70;2278.40;;;;;;5020925;28;20117;-67
2023/04/08 11:45:58;;;;;;;31.98;25.88;;;358.40;2278.40;;;;;;5025728;28;20552;-63
2023/04/08 11:48:24;;;;;;;36.33;27.50;;;358.40;2252.80;;;;;;5018083;28;20475;-66
2023/04/08 11:51:08;;;;;;;44.55;34.78;;;333.50;2304.00;;;;;;5024646;28;20020;-65
2023/04/08 11:53:37;;;;;;;69.70;48.47;;;333.70;2329.60;;;;;;5015923;28;20484;-66
2023/04/08 11:56:20;;;;;;;44.47;35.00;;;333.40;2329.60;;;;;;5024497;28;20029;-67
2023/04/08 11:58:46;;;;;;;62.55;48.55;;;333.40;2329.60;;;;;;5020683;28;20064;-65